This is the latest recevied weather packets stored in our database for station/object N1IJV-10. If no packets are shown the sender has not sent any weather packets the latest 1 day(s).
| Time | Temp. | Humidity | Pressure | Rain* | Wind** | Luminosity | Snow |
|---|---|---|---|---|---|---|---|
| 1777987503 | 7.78° C | 91% | 1009 hPa | 0 mm | 0 m/s | 112 W/m² | - |
| 1777987201 | 7.22° C | 92% | 1009.3 hPa | 0 mm | 0 m/s | 103 W/m² | - |
| 1777986897 | 7.22° C | 93% | 1009.2 hPa | 0 mm | 0 m/s | 80 W/m² | - |
| 1777986595 | 7.22° C | 93% | 1009.1 hPa | 0 mm | 0 m/s | 61 W/m² | - |
| 1777986293 | 6.67° C | 93% | 1008.7 hPa | 0 mm | 0 m/s | 42 W/m² | - |
| 1777985990 | 6.67° C | 92% | 1008.7 hPa | 0 mm | 0 m/s | 29 W/m² | - |
| 1777985687 | 6.67° C | 91% | 1008.1 hPa | 1.27 mm | 0 m/s | 10 W/m² | - |
| 1777985384 | 6.67° C | 90% | 1008.1 hPa | 3.05 mm | 0 m/s | 10 W/m² | - |
| 1777985081 | 7.22° C | 89% | 1008.5 hPa | 1.78 mm | 0 m/s | 8 W/m² | - |
| 1777984777 | 7.22° C | 89% | 1008.3 hPa | 1.27 mm | 0 m/s | 11 W/m² | - |
| 1777984474 | 7.22° C | 88% | 1008.9 hPa | 3.05 mm | 0.45 m/s, 86° | 10 W/m² | - |
| 1777984169 | 7.22° C | 87% | 1008.8 hPa | 1.78 mm | 0.45 m/s, 131° | 10 W/m² | - |
| 1777983867 | 7.22° C | 86% | 1008.4 hPa | 1.78 mm | 0 m/s | 8 W/m² | - |
| 1777983564 | 7.78° C | 84% | 1008.4 hPa | 0 mm | 0 m/s | 7 W/m² | - |
| 1777983261 | 7.78° C | 81% | 1008.3 hPa | 1.27 mm | 0 m/s | 6 W/m² | - |
| 1777982956 | 7.78° C | 82% | 1008.3 hPa | 1.27 mm | 0 m/s | 6 W/m² | - |
| 1777982653 | 8.33° C | 81% | 1008.7 hPa | 1.78 mm | 0 m/s | 4 W/m² | - |
| 1777982352 | 8.33° C | 80% | 1008.8 hPa | 1.78 mm | 0.45 m/s, 51° | 3 W/m² | - |
| 1777982049 | 8.89° C | 77% | 1008.6 hPa | 1.27 mm | 0.45 m/s, 69° | 3 W/m² | - |
| 1777981747 | 8.89° C | 74% | 1008.5 hPa | 1.27 mm | 0.45 m/s, 95° | 3 W/m² | - |
| 1777981443 | 8.89° C | 73% | 1008.1 hPa | 0 mm | 0 m/s | 2 W/m² | - |
| 1777981139 | 9.44° C | 69% | 1007.7 hPa | 0 mm | 0 m/s | 0 W/m² | - |
| 1777980836 | 9.44° C | 67% | 1007.4 hPa | 0 mm | 0 m/s | 1 W/m² | - |
| 1777980532 | 9.44° C | 66% | 1007.4 hPa | 0 mm | 0.45 m/s, 80° | 1 W/m² | - |
| 1777980230 | 10° C | 63% | 1007.6 hPa | 0 mm | 0.45 m/s, 54° | 0 W/m² | - |
* Rain latest hour (hover to see other rain measurements)
** Current wind speed in m/s (hover to see current wind gust speed)